sensor_id;sensor_type;location;lat;lon;timestamp;temperature;humidity
13231;DHT22;6681;53.254;10.398;2023-02-26T00:01:03;0.20;99.90
13231;DHT22;6681;53.254;10.398;2023-02-26T00:03:36;0.10;99.90
13231;DHT22;6681;53.254;10.398;2023-02-26T00:06:01;0.20;99.90
13231;DHT22;6681;53.254;10.398;2023-02-26T00:08:27;0.30;99.90
13231;DHT22;6681;53.254;10.398;2023-02-26T00:10:53;0.20;99.90
13231;DHT22;6681;53.254;10.398;2023-02-26T00:13:19;0.30;99.90
13231;DHT22;6681;53.254;10.398;2023-02-26T00:15:46;0.30;99.90
13231;DHT22;6681;53.254;10.398;2023-02-26T00:18:14;0.50;99.90
13231;DHT22;6681;53.254;10.398;2023-02-26T00:20:41;0.30;99.90
13231;DHT22;6681;53.254;10.398;2023-02-26T00:23:11;0.30;99.90
13231;DHT22;6681;53.254;10.398;2023-02-26T00:25:39;0.30;99.90
13231;DHT22;6681;53.254;10.398;2023-02-26T00:28:05;0.30;99.90
13231;DHT22;6681;53.254;10.398;2023-02-26T00:30:31;0.20;99.90
13231;DHT22;6681;53.254;10.398;2023-02-26T00:32:57;0.20;99.90
13231;DHT22;6681;53.254;10.398;2023-02-26T00:35:23;0.20;99.90
13231;DHT22;6681;53.254;10.398;2023-02-26T00:37:57;0.20;99.90
13231;DHT22;6681;53.254;10.398;2023-02-26T00:40:50;0.20;99.90
13231;DHT22;6681;53.254;10.398;2023-02-26T00:43:21;0.20;99.90
13231;DHT22;6681;53.254;10.398;2023-02-26T00:51:36;0.40;99.90
13231;DHT22;6681;53.254;10.398;2023-02-26T00:54:20;0.20;99.90
13231;DHT22;6681;53.254;10.398;2023-02-26T00:56:48;0.20;99.90
13231;DHT22;6681;53.254;10.398;2023-02-26T00:59:15;0.20;99.90
13231;DHT22;6681;53.254;10.398;2023-02-26T01:01:41;0.20;99.90
13231;DHT22;6681;53.254;10.398;2023-02-26T01:04:07;0.20;99.90
13231;DHT22;6681;53.254;10.398;2023-02-26T01:06:34;0.20;99.90
13231;DHT22;6681;53.254;10.398;2023-02-26T01:11:34;0.20;99.90
13231;DHT22;6681;53.254;10.398;2023-02-26T01:14:02;0.20;99.90
13231;DHT22;6681;53.254;10.398;2023-02-26T01:16:31;0.20;99.90
13231;DHT22;6681;53.254;10.398;2023-02-26T01:19:04;0.30;99.90
13231;DHT22;6681;53.254;10.398;2023-02-26T01:21:35;0.30;99.90
13231;DHT22;6681;53.254;10.398;2023-02-26T01:24:05;1.10;99.90
13231;DHT22;6681;53.254;10.398;2023-02-26T01:26:31;0.30;99.90
13231;DHT22;6681;53.254;10.398;2023-02-26T01:28:56;0.30;99.90
13231;DHT22;6681;53.254;10.398;2023-02-26T01:31:33;0.20;99.90
13231;DHT22;6681;53.254;10.398;2023-02-26T01:34:10;1.70;99.90
13231;DHT22;6681;53.254;10.398;2023-02-26T01:36:55;0.20;99.90
13231;DHT22;6681;53.254;10.398;2023-02-26T01:39:35;0.20;99.90
13231;DHT22;6681;53.254;10.398;2023-02-26T01:42:22;0.20;99.90
13231;DHT22;6681;53.254;10.398;2023-02-26T01:45:12;0.20;99.90
13231;DHT22;6681;53.254;10.398;2023-02-26T01:47:44;0.20;99.90
13231;DHT22;6681;53.254;10.398;2023-02-26T01:50:17;0.60;99.90
13231;DHT22;6681;53.254;10.398;2023-02-26T01:55:24;0.20;99.90
13231;DHT22;6681;53.254;10.398;2023-02-26T01:57:53;0.40;99.90
13231;DHT22;6681;53.254;10.398;2023-02-26T02:00:20;1.20;99.90
13231;DHT22;6681;53.254;10.398;2023-02-26T02:02:45;0.20;99.90
13231;DHT22;6681;53.254;10.398;2023-02-26T02:05:20;0.20;99.90
13231;DHT22;6681;53.254;10.398;2023-02-26T02:07:46;0.20;99.90
13231;DHT22;6681;53.254;10.398;2023-02-26T02:10:12;0.40;99.90
13231;DHT22;6681;53.254;10.398;2023-02-26T02:12:50;0.20;99.90
13231;DHT22;6681;53.254;10.398;2023-02-26T02:20:59;0.20;99.90
13231;DHT22;6681;53.254;10.398;2023-02-26T02:23:50;0.20;99.90
13231;DHT22;6681;53.254;10.398;2023-02-26T02:32:14;0.20;99.90
13231;DHT22;6681;53.254;10.398;2023-02-26T02:34:57;0.20;99.90
13231;DHT22;6681;53.254;10.398;2023-02-26T02:37:32;0.20;99.90
13231;DHT22;6681;53.254;10.398;2023-02-26T02:42:46;0.10;99.90
13231;DHT22;6681;53.254;10.398;2023-02-26T02:45:22;0.10;99.90
13231;DHT22;6681;53.254;10.398;2023-02-26T02:47:56;0.00;99.90
13231;DHT22;6681;53.254;10.398;2023-02-26T02:50:39;0.00;99.90
13231;DHT22;6681;53.254;10.398;2023-02-26T02:53:18;-0.10;99.90
13231;DHT22;6681;53.254;10.398;2023-02-26T02:56:15;-0.10;99.90
13231;DHT22;6681;53.254;10.398;2023-02-26T02:58:49;-0.10;99.90
13231;DHT22;6681;53.254;10.398;2023-02-26T03:01:18;-0.20;99.90
13231;DHT22;6681;53.254;10.398;2023-02-26T03:06:16;-0.20;99.90
13231;DHT22;6681;53.254;10.398;2023-02-26T03:08:43;-0.20;99.90
13231;DHT22;6681;53.254;10.398;2023-02-26T03:11:09;-0.20;99.90
13231;DHT22;6681;53.254;10.398;2023-02-26T03:13:35;-0.20;99.90
13231;DHT22;6681;53.254;10.398;2023-02-26T03:19:11;-0.20;99.90
13231;DHT22;6681;53.254;10.398;2023-02-26T03:24:37;-0.20;99.90
13231;DHT22;6681;53.254;10.398;2023-02-26T03:27:57;-0.20;99.90
13231;DHT22;6681;53.254;10.398;2023-02-26T03:33:25;-0.30;99.90
13231;DHT22;6681;53.254;10.398;2023-02-26T03:36:13;-0.30;99.90
13231;DHT22;6681;53.254;10.398;2023-02-26T03:38:48;-0.30;99.90
13231;DHT22;6681;53.254;10.398;2023-02-26T03:41:30;-0.30;99.90
13231;DHT22;6681;53.254;10.398;2023-02-26T03:44:01;-0.30;99.90
13231;DHT22;6681;53.254;10.398;2023-02-26T03:46:32;-0.20;99.90
13231;DHT22;6681;53.254;10.398;2023-02-26T03:49:05;-0.40;99.90
13231;DHT22;6681;53.254;10.398;2023-02-26T03:51:32;-0.40;99.90
13231;DHT22;6681;53.254;10.398;2023-02-26T03:54:05;-0.20;99.90
13231;DHT22;6681;53.254;10.398;2023-02-26T03:56:39;-0.20;99.90
13231;DHT22;6681;53.254;10.398;2023-02-26T03:59:05;-0.40;99.90
13231;DHT22;6681;53.254;10.398;2023-02-26T04:04:34;-0.40;99.90
13231;DHT22;6681;53.254;10.398;2023-02-26T04:07:07;-0.50;99.90
13231;DHT22;6681;53.254;10.398;2023-02-26T04:09:33;-0.50;99.90
13231;DHT22;6681;53.254;10.398;2023-02-26T04:11:59;-0.60;99.90
13231;DHT22;6681;53.254;10.398;2023-02-26T04:14:25;-0.50;99.90
13231;DHT22;6681;53.254;10.398;2023-02-26T04:16:50;-0.50;99.90
13231;DHT22;6681;53.254;10.398;2023-02-26T04:19:16;-0.50;99.90
13231;DHT22;6681;53.254;10.398;2023-02-26T04:21:42;-0.50;99.90
13231;DHT22;6681;53.254;10.398;2023-02-26T04:24:07;-0.50;99.90
13231;DHT22;6681;53.254;10.398;2023-02-26T04:26:33;-0.50;99.90
13231;DHT22;6681;53.254;10.398;2023-02-26T04:28:58;-0.60;99.90
13231;DHT22;6681;53.254;10.398;2023-02-26T04:31:24;1.20;99.90
13231;DHT22;6681;53.254;10.398;2023-02-26T04:33:50;1.10;99.90
13231;DHT22;6681;53.254;10.398;2023-02-26T04:36:15;0.70;99.90
13231;DHT22;6681;53.254;10.398;2023-02-26T04:38:44;0.40;99.90
13231;DHT22;6681;53.254;10.398;2023-02-26T04:41:10;0.90;99.90
13231;DHT22;6681;53.254;10.398;2023-02-26T04:43:35;-0.60;99.90
13231;DHT22;6681;53.254;10.398;2023-02-26T04:46:02;-0.60;99.90
13231;DHT22;6681;53.254;10.398;2023-02-26T04:48:28;0.70;99.90
13231;DHT22;6681;53.254;10.398;2023-02-26T04:50:53;-0.70;99.90
13231;DHT22;6681;53.254;10.398;2023-02-26T04:53:19;-0.70;99.90
13231;DHT22;6681;53.254;10.398;2023-02-26T04:55:47;-0.70;99.90
13231;DHT22;6681;53.254;10.398;2023-02-26T04:58:13;-0.40;99.90
13231;DHT22;6681;53.254;10.398;2023-02-26T05:00:39;0.30;99.90
13231;DHT22;6681;53.254;10.398;2023-02-26T05:03:05;-0.70;99.90
13231;DHT22;6681;53.254;10.398;2023-02-26T05:05:31;-0.30;99.90
13231;DHT22;6681;53.254;10.398;2023-02-26T05:07:57;-0.70;99.90
13231;DHT22;6681;53.254;10.398;2023-02-26T05:10:24;-0.80;99.90
13231;DHT22;6681;53.254;10.398;2023-02-26T05:12:50;-0.80;99.90
13231;DHT22;6681;53.254;10.398;2023-02-26T05:15:15;0.30;99.90
13231;DHT22;6681;53.254;10.398;2023-02-26T05:17:41;-0.80;99.90
13231;DHT22;6681;53.254;10.398;2023-02-26T05:20:07;-0.80;99.90
13231;DHT22;6681;53.254;10.398;2023-02-26T05:22:35;-0.80;99.90
13231;DHT22;6681;53.254;10.398;2023-02-26T05:25:01;1.40;99.90
13231;DHT22;6681;53.254;10.398;2023-02-26T05:27:27;-0.90;99.90
13231;DHT22;6681;53.254;10.398;2023-02-26T05:29:53;-0.90;99.90
13231;DHT22;6681;53.254;10.398;2023-02-26T05:32:18;-0.90;99.90
13231;DHT22;6681;53.254;10.398;2023-02-26T05:34:45;-0.90;99.90
13231;DHT22;6681;53.254;10.398;2023-02-26T05:37:11;-0.90;99.90
13231;DHT22;6681;53.254;10.398;2023-02-26T05:39:37;-0.60;99.90
13231;DHT22;6681;53.254;10.398;2023-02-26T05:42:03;-0.90;99.90
13231;DHT22;6681;53.254;10.398;2023-02-26T05:44:29;-0.90;99.90
13231;DHT22;6681;53.254;10.398;2023-02-26T05:46:54;-0.60;99.90
13231;DHT22;6681;53.254;10.398;2023-02-26T05:49:20;-0.90;99.90
13231;DHT22;6681;53.254;10.398;2023-02-26T05:51:45;-0.90;99.90
13231;DHT22;6681;53.254;10.398;2023-02-26T05:54:11;-0.90;99.90
13231;DHT22;6681;53.254;10.398;2023-02-26T05:56:37;-0.90;99.90
13231;DHT22;6681;53.254;10.398;2023-02-26T05:59:03;-0.90;99.90
13231;DHT22;6681;53.254;10.398;2023-02-26T06:01:28;-0.90;99.90
13231;DHT22;6681;53.254;10.398;2023-02-26T06:03:54;-0.90;99.90
13231;DHT22;6681;53.254;10.398;2023-02-26T06:06:20;-0.80;99.90
13231;DHT22;6681;53.254;10.398;2023-02-26T06:08:46;-0.50;99.90
13231;DHT22;6681;53.254;10.398;2023-02-26T06:11:12;-0.20;99.90
13231;DHT22;6681;53.254;10.398;2023-02-26T06:13:38;-0.90;99.90
13231;DHT22;6681;53.254;10.398;2023-02-26T06:16:04;-0.90;99.90
13231;DHT22;6681;53.254;10.398;2023-02-26T06:18:30;-0.90;99.90
13231;DHT22;6681;53.254;10.398;2023-02-26T06:20:56;-0.90;99.90
13231;DHT22;6681;53.254;10.398;2023-02-26T06:23:22;-1.00;99.90
13231;DHT22;6681;53.254;10.398;2023-02-26T06:25:50;-1.00;99.90
13231;DHT22;6681;53.254;10.398;2023-02-26T06:28:17;-1.00;99.90
13231;DHT22;6681;53.254;10.398;2023-02-26T06:30:43;0.20;99.90
13231;DHT22;6681;53.254;10.398;2023-02-26T06:33:08;0.60;99.90
13231;DHT22;6681;53.254;10.398;2023-02-26T06:35:34;-1.10;99.90
13231;DHT22;6681;53.254;10.398;2023-02-26T06:37:59;-1.00;99.90
13231;DHT22;6681;53.254;10.398;2023-02-26T06:40:25;-1.00;99.90
13231;DHT22;6681;53.254;10.398;2023-02-26T06:42:51;0.70;99.90
13231;DHT22;6681;53.254;10.398;2023-02-26T06:45:16;0.20;99.90
13231;DHT22;6681;53.254;10.398;2023-02-26T06:47:42;-1.00;99.90
13231;DHT22;6681;53.254;10.398;2023-02-26T06:50:08;-1.10;99.90
13231;DHT22;6681;53.254;10.398;2023-02-26T06:52:34;-1.10;99.90
13231;DHT22;6681;53.254;10.398;2023-02-26T06:55:01;-1.30;99.90
13231;DHT22;6681;53.254;10.398;2023-02-26T06:57:26;-1.10;99.90
13231;DHT22;6681;53.254;10.398;2023-02-26T06:59:52;-1.00;99.90
13231;DHT22;6681;53.254;10.398;2023-02-26T07:02:19;-1.00;99.90
13231;DHT22;6681;53.254;10.398;2023-02-26T07:04:45;-0.80;99.90
13231;DHT22;6681;53.254;10.398;2023-02-26T07:07:11;-0.70;99.90
13231;DHT22;6681;53.254;10.398;2023-02-26T07:09:37;0.40;99.90
13231;DHT22;6681;53.254;10.398;2023-02-26T07:12:03;-1.00;99.90
13231;DHT22;6681;53.254;10.398;2023-02-26T07:14:31;-1.00;99.90
13231;DHT22;6681;53.254;10.398;2023-02-26T07:16:58;-1.00;99.90
13231;DHT22;6681;53.254;10.398;2023-02-26T07:19:24;-1.00;99.90
13231;DHT22;6681;53.254;10.398;2023-02-26T07:21:50;0.20;99.90
13231;DHT22;6681;53.254;10.398;2023-02-26T07:24:15;0.80;99.90
13231;DHT22;6681;53.254;10.398;2023-02-26T07:26:41;-0.90;99.90
13231;DHT22;6681;53.254;10.398;2023-02-26T07:29:07;-0.90;99.90
13231;DHT22;6681;53.254;10.398;2023-02-26T07:31:32;-1.00;99.90
13231;DHT22;6681;53.254;10.398;2023-02-26T07:33:58;-0.90;99.90
13231;DHT22;6681;53.254;10.398;2023-02-26T07:36:24;-1.00;99.90
13231;DHT22;6681;53.254;10.398;2023-02-26T07:38:49;-0.90;99.90
13231;DHT22;6681;53.254;10.398;2023-02-26T07:41:15;-0.90;99.90
13231;DHT22;6681;53.254;10.398;2023-02-26T07:43:41;-1.00;99.90
13231;DHT22;6681;53.254;10.398;2023-02-26T07:46:07;-0.90;99.90
13231;DHT22;6681;53.254;10.398;2023-02-26T07:48:33;-0.70;99.90
13231;DHT22;6681;53.254;10.398;2023-02-26T07:50:59;-0.70;99.90
13231;DHT22;6681;53.254;10.398;2023-02-26T07:53:25;-0.80;99.90
13231;DHT22;6681;53.254;10.398;2023-02-26T07:55:50;-0.80;99.90
13231;DHT22;6681;53.254;10.398;2023-02-26T07:58:17;-0.80;99.90
13231;DHT22;6681;53.254;10.398;2023-02-26T08:00:42;-0.70;99.90
13231;DHT22;6681;53.254;10.398;2023-02-26T08:03:08;1.30;99.90
13231;DHT22;6681;53.254;10.398;2023-02-26T08:05:34;-0.50;99.90
13231;DHT22;6681;53.254;10.398;2023-02-26T08:07:59;-0.60;99.90
13231;DHT22;6681;53.254;10.398;2023-02-26T08:10:26;-0.50;99.90
13231;DHT22;6681;53.254;10.398;2023-02-26T08:12:52;-0.10;99.90
13231;DHT22;6681;53.254;10.398;2023-02-26T08:15:18;-0.50;99.90
13231;DHT22;6681;53.254;10.398;2023-02-26T08:17:44;-0.20;99.90
13231;DHT22;6681;53.254;10.398;2023-02-26T08:20:10;-0.40;99.90
13231;DHT22;6681;53.254;10.398;2023-02-26T08:22:37;-0.30;99.90
13231;DHT22;6681;53.254;10.398;2023-02-26T08:25:03;-0.20;99.90
13231;DHT22;6681;53.254;10.398;2023-02-26T08:27:29;-0.10;99.90
13231;DHT22;6681;53.254;10.398;2023-02-26T08:29:55;-0.10;99.90
13231;DHT22;6681;53.254;10.398;2023-02-26T08:32:21;-0.10;99.90
13231;DHT22;6681;53.254;10.398;2023-02-26T08:34:47;0.00;99.90
13231;DHT22;6681;53.254;10.398;2023-02-26T08:37:13;0.20;99.90
13231;DHT22;6681;53.254;10.398;2023-02-26T08:39:39;0.10;99.90
13231;DHT22;6681;53.254;10.398;2023-02-26T08:42:06;0.20;99.90
13231;DHT22;6681;53.254;10.398;2023-02-26T08:44:32;0.30;99.90
13231;DHT22;6681;53.254;10.398;2023-02-26T08:46:58;0.30;99.90
13231;DHT22;6681;53.254;10.398;2023-02-26T08:49:24;0.40;99.90
13231;DHT22;6681;53.254;10.398;2023-02-26T08:51:50;0.40;99.90
13231;DHT22;6681;53.254;10.398;2023-02-26T08:54:15;1.10;99.90
13231;DHT22;6681;53.254;10.398;2023-02-26T08:56:41;0.60;99.90
13231;DHT22;6681;53.254;10.398;2023-02-26T08:59:07;2.40;99.90
13231;DHT22;6681;53.254;10.398;2023-02-26T09:01:34;0.90;99.90
13231;DHT22;6681;53.254;10.398;2023-02-26T09:04:00;0.70;99.90
13231;DHT22;6681;53.254;10.398;2023-02-26T09:06:25;0.80;99.90
13231;DHT22;6681;53.254;10.398;2023-02-26T09:08:51;0.90;99.90
13231;DHT22;6681;53.254;10.398;2023-02-26T09:11:17;1.00;99.90
13231;DHT22;6681;53.254;10.398;2023-02-26T09:13:42;1.00;99.90
13231;DHT22;6681;53.254;10.398;2023-02-26T09:16:08;1.00;99.90
13231;DHT22;6681;53.254;10.398;2023-02-26T09:18:34;1.10;99.90
13231;DHT22;6681;53.254;10.398;2023-02-26T09:21:00;2.10;99.90
13231;DHT22;6681;53.254;10.398;2023-02-26T09:23:26;1.20;99.90
13231;DHT22;6681;53.254;10.398;2023-02-26T09:25:53;1.30;99.90
13231;DHT22;6681;53.254;10.398;2023-02-26T09:28:20;1.30;99.90
13231;DHT22;6681;53.254;10.398;2023-02-26T09:30:45;2.60;99.90
13231;DHT22;6681;53.254;10.398;2023-02-26T09:33:11;1.40;99.90
13231;DHT22;6681;53.254;10.398;2023-02-26T09:35:37;1.80;99.90
13231;DHT22;6681;53.254;10.398;2023-02-26T09:38:03;3.10;99.90
13231;DHT22;6681;53.254;10.398;2023-02-26T09:40:53;1.50;99.90
13231;DHT22;6681;53.254;10.398;2023-02-26T09:49:16;1.70;99.90
13231;DHT22;6681;53.254;10.398;2023-02-26T09:51:46;1.70;99.90
13231;DHT22;6681;53.254;10.398;2023-02-26T09:54:38;1.80;99.90
13231;DHT22;6681;53.254;10.398;2023-02-26T09:57:08;1.80;99.90
13231;DHT22;6681;53.254;10.398;2023-02-26T09:59:35;1.90;99.90
13231;DHT22;6681;53.254;10.398;2023-02-26T10:02:13;2.10;99.90
13231;DHT22;6681;53.254;10.398;2023-02-26T10:05:19;2.00;99.90
13231;DHT22;6681;53.254;10.398;2023-02-26T10:10:34;3.20;99.90
13231;DHT22;6681;53.254;10.398;2023-02-26T10:13:03;2.20;99.90
13231;DHT22;6681;53.254;10.398;2023-02-26T10:15:34;2.30;99.90
13231;DHT22;6681;53.254;10.398;2023-02-26T10:18:25;2.40;99.90
13231;DHT22;6681;53.254;10.398;2023-02-26T10:23:43;2.40;99.90
13231;DHT22;6681;53.254;10.398;2023-02-26T10:26:20;2.40;99.90
13231;DHT22;6681;53.254;10.398;2023-02-26T10:29:06;2.50;99.90
13231;DHT22;6681;53.254;10.398;2023-02-26T10:40:07;2.70;99.90
13231;DHT22;6681;53.254;10.398;2023-02-26T10:45:23;2.70;99.90
13231;DHT22;6681;53.254;10.398;2023-02-26T10:48:08;2.80;99.90
13231;DHT22;6681;53.254;10.398;2023-02-26T10:50:47;3.00;99.90
13231;DHT22;6681;53.254;10.398;2023-02-26T10:53:13;4.50;99.90
13231;DHT22;6681;53.254;10.398;2023-02-26T10:58:24;3.10;99.90
13231;DHT22;6681;53.254;10.398;2023-02-26T11:00:52;3.10;99.90
13231;DHT22;6681;53.254;10.398;2023-02-26T11:05:56;3.20;99.90
13231;DHT22;6681;53.254;10.398;2023-02-26T11:08:29;3.30;99.90
13231;DHT22;6681;53.254;10.398;2023-02-26T11:11:00;3.30;99.90
13231;DHT22;6681;53.254;10.398;2023-02-26T11:13:31;3.40;99.90
13231;DHT22;6681;53.254;10.398;2023-02-26T11:16:02;3.60;99.90
13231;DHT22;6681;53.254;10.398;2023-02-26T11:18:39;3.50;99.90
13231;DHT22;6681;53.254;10.398;2023-02-26T11:21:06;3.50;99.90
13231;DHT22;6681;53.254;10.398;2023-02-26T11:23:33;3.60;99.90
13231;DHT22;6681;53.254;10.398;2023-02-26T11:26:05;4.30;99.90
13231;DHT22;6681;53.254;10.398;2023-02-26T11:28:36;3.50;99.90
13231;DHT22;6681;53.254;10.398;2023-02-26T11:31:09;3.50;99.90
13231;DHT22;6681;53.254;10.398;2023-02-26T11:33:43;3.50;99.90
13231;DHT22;6681;53.254;10.398;2023-02-26T11:36:15;3.50;99.90
13231;DHT22;6681;53.254;10.398;2023-02-26T11:38:51;3.70;99.90
13231;DHT22;6681;53.254;10.398;2023-02-26T11:41:17;4.00;99.90
13231;DHT22;6681;53.254;10.398;2023-02-26T11:43:45;3.70;99.90
13231;DHT22;6681;53.254;10.398;2023-02-26T11:46:12;4.30;99.90
13231;DHT22;6681;53.254;10.398;2023-02-26T11:48:48;3.60;99.90
13231;DHT22;6681;53.254;10.398;2023-02-26T11:51:18;3.60;99.90
13231;DHT22;6681;53.254;10.398;2023-02-26T11:53:51;3.80;99.90
13231;DHT22;6681;53.254;10.398;2023-02-26T11:58:52;3.90;99.90
13231;DHT22;6681;53.254;10.398;2023-02-26T12:01:20;4.20;99.90
13231;DHT22;6681;53.254;10.398;2023-02-26T12:03:51;4.30;99.90
13231;DHT22;6681;53.254;10.398;2023-02-26T12:06:20;3.90;99.90
13231;DHT22;6681;53.254;10.398;2023-02-26T12:08:46;3.80;99.90
13231;DHT22;6681;53.254;10.398;2023-02-26T12:22:59;4.50;99.90
13231;DHT22;6681;53.254;10.398;2023-02-26T12:37:27;4.90;99.90
13231;DHT22;6681;53.254;10.398;2023-02-26T12:43:01;4.40;99.90
13231;DHT22;6681;53.254;10.398;2023-02-26T12:51:01;4.10;99.90
13231;DHT22;6681;53.254;10.398;2023-02-26T12:53:39;4.10;99.90
13231;DHT22;6681;53.254;10.398;2023-02-26T13:06:53;4.30;99.90
13231;DHT22;6681;53.254;10.398;2023-02-26T13:09:46;4.30;99.90
13231;DHT22;6681;53.254;10.398;2023-02-26T13:18:31;4.40;99.90
13231;DHT22;6681;53.254;10.398;2023-02-26T13:20:37;4.30;99.90
13231;DHT22;6681;53.254;10.398;2023-02-26T13:23:13;5.00;99.90
13231;DHT22;6681;53.254;10.398;2023-02-26T13:25:51;4.40;99.90
13231;DHT22;6681;53.254;10.398;2023-02-26T13:31:00;4.30;99.90
13231;DHT22;6681;53.254;10.398;2023-02-26T13:33:30;4.30;99.90
13231;DHT22;6681;53.254;10.398;2023-02-26T13:35:59;5.00;99.90
13231;DHT22;6681;53.254;10.398;2023-02-26T13:41:19;4.30;99.90
13231;DHT22;6681;53.254;10.398;2023-02-26T13:44:21;4.30;99.90
13231;DHT22;6681;53.254;10.398;2023-02-26T13:49:50;4.20;99.90
13231;DHT22;6681;53.254;10.398;2023-02-26T13:52:31;4.10;99.90
13231;DHT22;6681;53.254;10.398;2023-02-26T13:54:57;4.10;99.90
13231;DHT22;6681;53.254;10.398;2023-02-26T13:57:50;4.10;99.90
13231;DHT22;6681;53.254;10.398;2023-02-26T14:00:32;4.00;99.90
13231;DHT22;6681;53.254;10.398;2023-02-26T14:03:12;4.00;99.90
13231;DHT22;6681;53.254;10.398;2023-02-26T14:06:22;4.20;99.90
13231;DHT22;6681;53.254;10.398;2023-02-26T14:08:50;4.00;99.90
13231;DHT22;6681;53.254;10.398;2023-02-26T14:13:42;4.00;99.90
13231;DHT22;6681;53.254;10.398;2023-02-26T14:16:28;4.50;99.90
13231;DHT22;6681;53.254;10.398;2023-02-26T14:21:54;5.50;99.90
13231;DHT22;6681;53.254;10.398;2023-02-26T14:25:08;4.00;99.90
13231;DHT22;6681;53.254;10.398;2023-02-26T14:27:34;4.20;99.90
13231;DHT22;6681;53.254;10.398;2023-02-26T14:35:32;4.80;99.90
13231;DHT22;6681;53.254;10.398;2023-02-26T14:38:00;4.80;99.90
13231;DHT22;6681;53.254;10.398;2023-02-26T14:40:29;4.80;99.90
13231;DHT22;6681;53.254;10.398;2023-02-26T14:43:03;4.70;99.90
13231;DHT22;6681;53.254;10.398;2023-02-26T14:45:40;4.70;99.90
13231;DHT22;6681;53.254;10.398;2023-02-26T14:48:12;4.70;99.90
13231;DHT22;6681;53.254;10.398;2023-02-26T14:51:03;4.60;99.90
13231;DHT22;6681;53.254;10.398;2023-02-26T14:59:52;4.60;99.90
13231;DHT22;6681;53.254;10.398;2023-02-26T15:02:36;4.60;99.90
13231;DHT22;6681;53.254;10.398;2023-02-26T15:05:46;5.10;99.90
13231;DHT22;6681;53.254;10.398;2023-02-26T15:11:32;4.60;99.90
13231;DHT22;6681;53.254;10.398;2023-02-26T15:14:09;4.50;99.90
13231;DHT22;6681;53.254;10.398;2023-02-26T15:22:29;4.50;99.90
13231;DHT22;6681;53.254;10.398;2023-02-26T15:24:58;4.40;99.90
13231;DHT22;6681;53.254;10.398;2023-02-26T15:27:30;5.80;99.90
13231;DHT22;6681;53.254;10.398;2023-02-26T15:29:56;5.80;99.90
13231;DHT22;6681;53.254;10.398;2023-02-26T15:32:24;4.20;99.90
13231;DHT22;6681;53.254;10.398;2023-02-26T15:35:05;4.20;99.90
13231;DHT22;6681;53.254;10.398;2023-02-26T15:37:35;4.20;99.90
13231;DHT22;6681;53.254;10.398;2023-02-26T15:40:03;4.20;99.90
13231;DHT22;6681;53.254;10.398;2023-02-26T15:42:32;4.10;99.90
13231;DHT22;6681;53.254;10.398;2023-02-26T15:45:00;4.50;99.90
13231;DHT22;6681;53.254;10.398;2023-02-26T15:47:27;5.80;99.90
13231;DHT22;6681;53.254;10.398;2023-02-26T15:49:55;5.40;99.90
13231;DHT22;6681;53.254;10.398;2023-02-26T15:52:22;4.30;99.90
13231;DHT22;6681;53.254;10.398;2023-02-26T15:54:56;4.50;99.90
13231;DHT22;6681;53.254;10.398;2023-02-26T15:57:23;4.20;99.90
13231;DHT22;6681;53.254;10.398;2023-02-26T15:59:51;4.30;99.90
13231;DHT22;6681;53.254;10.398;2023-02-26T16:02:29;3.80;99.90
13231;DHT22;6681;53.254;10.398;2023-02-26T16:04:55;3.90;99.90
13231;DHT22;6681;53.254;10.398;2023-02-26T16:07:24;3.70;99.90
13231;DHT22;6681;53.254;10.398;2023-02-26T16:09:52;2.60;99.90
13231;DHT22;6681;53.254;10.398;2023-02-26T16:12:39;4.10;99.90
13231;DHT22;6681;53.254;10.398;2023-02-26T16:15:13;4.30;99.90
13231;DHT22;6681;53.254;10.398;2023-02-26T16:17:42;3.60;99.90
13231;DHT22;6681;53.254;10.398;2023-02-26T16:20:20;3.60;99.90
13231;DHT22;6681;53.254;10.398;2023-02-26T16:23:16;3.60;99.90
13231;DHT22;6681;53.254;10.398;2023-02-26T16:25:50;3.50;99.90
13231;DHT22;6681;53.254;10.398;2023-02-26T16:28:25;3.60;99.90
13231;DHT22;6681;53.254;10.398;2023-02-26T16:30:53;3.50;99.90
13231;DHT22;6681;53.254;10.398;2023-02-26T16:33:22;3.60;99.90
13231;DHT22;6681;53.254;10.398;2023-02-26T16:35:54;3.40;99.90
13231;DHT22;6681;53.254;10.398;2023-02-26T16:38:24;3.30;99.90
13231;DHT22;6681;53.254;10.398;2023-02-26T16:41:04;4.80;99.90
13231;DHT22;6681;53.254;10.398;2023-02-26T16:43:51;3.30;99.90
13231;DHT22;6681;53.254;10.398;2023-02-26T16:48:56;3.20;99.90
13231;DHT22;6681;53.254;10.398;2023-02-26T16:51:26;3.50;99.90
13231;DHT22;6681;53.254;10.398;2023-02-26T16:53:59;3.10;99.90
13231;DHT22;6681;53.254;10.398;2023-02-26T16:56:30;3.10;99.90
13231;DHT22;6681;53.254;10.398;2023-02-26T16:59:12;4.30;99.90
13231;DHT22;6681;53.254;10.398;2023-02-26T17:01:50;3.10;99.90
13231;DHT22;6681;53.254;10.398;2023-02-26T17:04:18;3.00;99.90
13231;DHT22;6681;53.254;10.398;2023-02-26T17:06:47;3.00;99.90
13231;DHT22;6681;53.254;10.398;2023-02-26T17:09:33;2.90;99.90
13231;DHT22;6681;53.254;10.398;2023-02-26T17:12:14;4.10;99.90
13231;DHT22;6681;53.254;10.398;2023-02-26T17:14:43;2.90;99.90
13231;DHT22;6681;53.254;10.398;2023-02-26T17:17:09;2.90;99.90
13231;DHT22;6681;53.254;10.398;2023-02-26T17:19:35;2.80;99.90
13231;DHT22;6681;53.254;10.398;2023-02-26T17:22:01;2.70;99.90
13231;DHT22;6681;53.254;10.398;2023-02-26T17:24:36;2.70;99.90
13231;DHT22;6681;53.254;10.398;2023-02-26T17:27:05;2.60;99.90
13231;DHT22;6681;53.254;10.398;2023-02-26T17:29:40;2.60;99.90
13231;DHT22;6681;53.254;10.398;2023-02-26T17:32:18;2.60;99.90
13231;DHT22;6681;53.254;10.398;2023-02-26T17:34:44;2.60;99.90
13231;DHT22;6681;53.254;10.398;2023-02-26T17:37:13;2.60;99.90
13231;DHT22;6681;53.254;10.398;2023-02-26T17:39:39;2.60;99.90
13231;DHT22;6681;53.254;10.398;2023-02-26T17:42:16;2.50;99.90
13231;DHT22;6681;53.254;10.398;2023-02-26T17:44:41;2.50;99.90
13231;DHT22;6681;53.254;10.398;2023-02-26T17:47:22;2.50;99.90
13231;DHT22;6681;53.254;10.398;2023-02-26T17:49:49;2.30;99.90
13231;DHT22;6681;53.254;10.398;2023-02-26T17:52:15;2.30;99.90
13231;DHT22;6681;53.254;10.398;2023-02-26T17:54:44;2.20;99.90
13231;DHT22;6681;53.254;10.398;2023-02-26T17:57:19;2.10;99.90
13231;DHT22;6681;53.254;10.398;2023-02-26T17:59:45;2.00;99.90
13231;DHT22;6681;53.254;10.398;2023-02-26T18:02:22;2.00;99.90
13231;DHT22;6681;53.254;10.398;2023-02-26T18:04:49;1.90;99.90
13231;DHT22;6681;53.254;10.398;2023-02-26T18:07:17;1.80;99.90
13231;DHT22;6681;53.254;10.398;2023-02-26T18:09:47;1.80;99.90
13231;DHT22;6681;53.254;10.398;2023-02-26T18:12:18;3.40;99.90
13231;DHT22;6681;53.254;10.398;2023-02-26T18:14:44;1.70;99.90
13231;DHT22;6681;53.254;10.398;2023-02-26T18:17:18;1.60;99.90
13231;DHT22;6681;53.254;10.398;2023-02-26T18:19:45;1.60;99.90
13231;DHT22;6681;53.254;10.398;2023-02-26T18:22:14;1.60;99.90
13231;DHT22;6681;53.254;10.398;2023-02-26T18:24:40;1.60;99.90
13231;DHT22;6681;53.254;10.398;2023-02-26T18:27:17;2.30;99.90
13231;DHT22;6681;53.254;10.398;2023-02-26T18:29:44;1.70;99.90
13231;DHT22;6681;53.254;10.398;2023-02-26T18:32:19;1.70;99.90
13231;DHT22;6681;53.254;10.398;2023-02-26T18:34:45;3.30;99.90
13231;DHT22;6681;53.254;10.398;2023-02-26T18:37:13;1.60;99.90
13231;DHT22;6681;53.254;10.398;2023-02-26T18:39:40;1.60;99.90